createdAt,value
2023-09-27T00:02:25.232Z,3.97
2023-09-27T00:04:52.631Z,3.47
2023-09-27T00:07:19.931Z,3.67
2023-09-27T00:09:47.232Z,3.80
2023-09-27T00:12:16.617Z,3.30
2023-09-27T00:14:43.730Z,3.70
2023-09-27T00:17:10.935Z,3.80
2023-09-27T00:19:38.234Z,3.37
2023-09-27T00:22:05.447Z,3.53
2023-09-27T00:24:32.603Z,3.27
2023-09-27T00:26:59.881Z,3.30
2023-09-27T00:29:27.059Z,3.10
2023-09-27T00:31:54.215Z,3.20
2023-09-27T00:34:21.401Z,3.30
2023-09-27T00:36:48.564Z,3.37
2023-09-27T00:39:15.725Z,3.33
2023-09-27T00:41:43.484Z,3.83
2023-09-27T00:44:10.668Z,3.60
2023-09-27T00:46:38.189Z,3.40
2023-09-27T00:49:06.099Z,3.23
2023-09-27T00:51:33.303Z,4.23
2023-09-27T00:54:00.763Z,3.20
2023-09-27T00:56:28.121Z,3.50
2023-09-27T00:58:55.914Z,3.30
2023-09-27T01:01:26.599Z,3.20
2023-09-27T01:03:54.384Z,3.40
2023-09-27T01:06:21.817Z,3.30
2023-09-27T01:08:48.988Z,3.17
2023-09-27T01:11:16.259Z,3.40
2023-09-27T01:13:44.538Z,3.57
2023-09-27T01:16:11.689Z,3.47
2023-09-27T01:18:41.244Z,3.50
2023-09-27T01:21:08.385Z,3.40
2023-09-27T01:23:39.489Z,3.27
2023-09-27T01:26:08.364Z,3.20
2023-09-27T01:28:36.218Z,3.43
2023-09-27T01:31:03.513Z,3.07
2023-09-27T01:33:30.833Z,3.83
2023-09-27T01:35:58.730Z,3.27
2023-09-27T01:38:25.860Z,3.10
2023-09-27T01:40:53.083Z,3.27
2023-09-27T01:43:20.205Z,3.50
2023-09-27T01:45:47.366Z,3.00
2023-09-27T01:48:14.562Z,3.20
2023-09-27T01:50:41.741Z,3.07
2023-09-27T01:53:09.282Z,2.90
2023-09-27T01:55:37.160Z,3.43
2023-09-27T01:58:04.482Z,3.40
2023-09-27T02:00:31.970Z,2.90
2023-09-27T02:03:00.978Z,2.90
2023-09-27T02:05:29.411Z,3.20
2023-09-27T02:07:56.702Z,2.87
2023-09-27T02:10:24.159Z,3.40
2023-09-27T02:12:51.476Z,3.10
2023-09-27T02:15:18.935Z,3.30
2023-09-27T02:17:46.885Z,2.90
2023-09-27T02:20:19.430Z,2.87
2023-09-27T02:22:48.905Z,2.80
2023-09-27T02:25:16.329Z,3.07
2023-09-27T02:27:44.086Z,2.87
2023-09-27T02:30:12.810Z,3.20
2023-09-27T02:32:43.066Z,2.70
2023-09-27T02:35:20.010Z,3.30
2023-09-27T02:37:48.258Z,3.10
2023-09-27T02:40:16.795Z,3.27
2023-09-27T02:42:48.122Z,3.20
2023-09-27T02:45:15.389Z,3.00
2023-09-27T02:47:47.554Z,3.13
2023-09-27T02:50:16.076Z,2.70
2023-09-27T02:52:44.894Z,3.30
2023-09-27T02:55:13.116Z,2.97
2023-09-27T02:57:41.095Z,2.90
2023-09-27T03:00:09.587Z,3.03
2023-09-27T03:02:38.403Z,2.80
2023-09-27T03:05:07.009Z,2.80
2023-09-27T03:07:37.184Z,3.10
2023-09-27T03:10:09.065Z,2.73
2023-09-27T03:12:36.313Z,3.30
2023-09-27T03:15:04.489Z,2.93
2023-09-27T03:17:31.967Z,2.90
2023-09-27T03:19:59.317Z,3.00
2023-09-27T03:22:26.560Z,2.93
2023-09-27T03:24:53.702Z,3.23
2023-09-27T03:27:20.848Z,3.10
2023-09-27T03:29:48.989Z,3.60
2023-09-27T03:32:16.150Z,3.30
2023-09-27T03:34:43.305Z,3.20
2023-09-27T03:37:10.748Z,2.77
2023-09-27T03:39:37.923Z,3.33
2023-09-27T03:42:05.224Z,3.10
2023-09-27T03:44:34.405Z,3.07
2023-09-27T03:47:03.382Z,3.47
2023-09-27T03:49:30.829Z,3.30
2023-09-27T03:51:58.173Z,3.30
2023-09-27T03:54:26.274Z,3.30
2023-09-27T03:56:55.383Z,3.40
2023-09-27T03:59:22.857Z,3.53
2023-09-27T04:01:50.037Z,2.93
2023-09-27T04:04:17.229Z,3.07
2023-09-27T04:06:44.477Z,3.27
2023-09-27T04:09:11.915Z,2.87
2023-09-27T04:11:39.129Z,3.13
2023-09-27T04:14:07.004Z,3.47
2023-09-27T04:16:34.456Z,3.20
2023-09-27T04:19:01.652Z,3.30
2023-09-27T04:21:29.781Z,3.10
2023-09-27T04:23:57.379Z,3.23
2023-09-27T04:26:25.145Z,3.50
2023-09-27T04:28:53.637Z,3.43
2023-09-27T04:31:21.322Z,3.13
2023-09-27T04:33:48.610Z,3.03
2023-09-27T04:36:19.495Z,2.90
2023-09-27T04:38:47.590Z,2.93
2023-09-27T04:41:19.059Z,3.20
2023-09-27T04:43:46.399Z,2.97
2023-09-27T04:46:17.856Z,3.57
2023-09-27T04:48:45.770Z,3.37
2023-09-27T04:51:13.143Z,2.70
2023-09-27T04:53:40.561Z,3.10
2023-09-27T04:56:13.306Z,3.17
2023-09-27T04:58:43.288Z,2.90
2023-09-27T05:01:11.932Z,2.70
2023-09-27T05:03:39.563Z,3.30
2023-09-27T05:06:06.801Z,2.70
2023-09-27T05:08:34.126Z,2.90
2023-09-27T05:11:02.143Z,3.20
2023-09-27T05:13:30.512Z,2.70
2023-09-27T05:15:57.916Z,2.90
2023-09-27T05:18:25.195Z,3.60
2023-09-27T05:20:52.446Z,3.13
2023-09-27T05:23:19.780Z,3.00
2023-09-27T05:25:47.050Z,3.50
2023-09-27T05:28:14.169Z,3.47
2023-09-27T05:30:41.319Z,3.20
2023-09-27T05:33:08.987Z,3.40
2023-09-27T05:35:36.300Z,3.13
2023-09-27T05:38:04.451Z,3.30
2023-09-27T05:40:32.641Z,3.23
2023-09-27T05:43:01.444Z,3.00
2023-09-27T05:45:29.849Z,2.87
2023-09-27T05:47:57.122Z,3.27
2023-09-27T05:50:24.409Z,2.93
2023-09-27T05:52:51.659Z,3.13
2023-09-27T05:55:18.922Z,2.93
2023-09-27T05:57:46.094Z,3.13
2023-09-27T06:00:23.030Z,2.87
2023-09-27T06:02:50.251Z,2.47
2023-09-27T06:05:17.749Z,3.10
2023-09-27T06:07:45.020Z,3.17
2023-09-27T06:10:12.212Z,3.50
2023-09-27T06:12:39.960Z,3.30
2023-09-27T06:15:07.661Z,3.50
2023-09-27T06:17:34.851Z,3.60
2023-09-27T06:20:06.553Z,3.87
2023-09-27T06:22:35.345Z,3.87
2023-09-27T06:25:02.478Z,3.33
2023-09-27T06:27:29.607Z,3.70
2023-09-27T06:29:56.743Z,3.90
2023-09-27T06:32:24.187Z,3.17
2023-09-27T06:34:53.578Z,3.00
2023-09-27T06:37:20.948Z,3.60
2023-09-27T06:39:48.128Z,3.60
2023-09-27T06:42:16.650Z,3.40
2023-09-27T06:44:43.883Z,3.90
2023-09-27T06:47:11.156Z,3.70
2023-09-27T06:49:38.507Z,4.20
2023-09-27T06:52:06.540Z,4.23
2023-09-27T06:54:34.145Z,4.27
2023-09-27T06:57:01.270Z,4.43
2023-09-27T06:59:28.446Z,4.30
2023-09-27T07:01:55.764Z,4.20
2023-09-27T07:04:23.287Z,4.20
2023-09-27T07:06:50.489Z,4.20
2023-09-27T07:09:17.956Z,4.03
2023-09-27T07:11:45.869Z,3.97
2023-09-27T07:14:13.515Z,4.50
2023-09-27T07:16:54.614Z,3.33
2023-09-27T07:19:26.373Z,4.30
2023-09-27T07:21:53.501Z,3.57
2023-09-27T07:24:20.957Z,3.63
2023-09-27T07:26:50.870Z,3.40
2023-09-27T07:29:18.111Z,3.70
2023-09-27T07:31:45.216Z,3.67
2023-09-27T07:34:12.332Z,3.53
2023-09-27T07:36:39.469Z,3.90
2023-09-27T07:39:07.094Z,3.63
2023-09-27T07:41:36.867Z,3.57
2023-09-27T07:44:08.100Z,3.87
2023-09-27T07:46:36.551Z,3.80
2023-09-27T07:49:04.940Z,3.83
2023-09-27T07:51:32.144Z,3.80
2023-09-27T07:53:59.342Z,4.10
2023-09-27T07:56:31.874Z,3.70
2023-09-27T07:58:59.862Z,3.63
2023-09-27T08:01:29.540Z,3.53
2023-09-27T08:04:09.086Z,3.87
2023-09-27T08:06:38.489Z,3.57
2023-09-27T08:09:07.369Z,3.53
2023-09-27T08:11:35.042Z,3.80
2023-09-27T08:14:02.858Z,3.77
2023-09-27T08:16:30.513Z,4.20
2023-09-27T08:18:57.747Z,3.97
2023-09-27T08:21:24.868Z,3.47
2023-09-27T08:23:53.936Z,4.00
2023-09-27T08:26:21.233Z,3.57
2023-09-27T08:28:48.377Z,3.40
2023-09-27T08:31:15.682Z,3.60
2023-09-27T08:33:42.913Z,3.53
2023-09-27T08:36:10.066Z,3.63
2023-09-27T08:38:37.480Z,4.10
2023-09-27T08:41:07.737Z,3.70
2023-09-27T08:43:35.064Z,4.00
2023-09-27T08:46:03.986Z,4.60
2023-09-27T08:48:32.181Z,6.20
2023-09-27T08:51:04.344Z,5.50
2023-09-27T08:53:33.398Z,5.40
2023-09-27T08:56:02.488Z,5.60
2023-09-27T08:58:30.856Z,4.70
2023-09-27T09:00:58.488Z,5.27
2023-09-27T09:03:26.335Z,4.80
2023-09-27T09:05:53.966Z,4.13
2023-09-27T09:08:33.443Z,3.87
2023-09-27T09:11:13.002Z,3.60
2023-09-27T09:13:58.757Z,3.53
2023-09-27T09:16:25.990Z,2.90
2023-09-27T09:18:55.995Z,3.00
2023-09-27T09:21:26.439Z,3.10
2023-09-27T09:23:54.671Z,3.10
2023-09-27T09:26:29.757Z,3.00
2023-09-27T09:29:01.742Z,3.00
2023-09-27T09:31:31.086Z,3.07
2023-09-27T09:34:10.091Z,2.43
2023-09-27T09:36:38.174Z,2.50
2023-09-27T09:39:06.638Z,2.70
2023-09-27T09:41:54.518Z,2.70
2023-09-27T09:44:25.635Z,2.70
2023-09-27T09:46:53.150Z,3.03
2023-09-27T09:49:20.414Z,2.60
2023-09-27T09:51:48.976Z,2.87
2023-09-27T09:54:47.881Z,2.70
2023-09-27T09:57:24.738Z,3.10
2023-09-27T10:00:31.228Z,2.70
2023-09-27T10:03:03.198Z,2.60
2023-09-27T10:05:37.382Z,2.80
2023-09-27T10:08:07.682Z,2.67
2023-09-27T10:10:35.616Z,2.80
2023-09-27T10:13:08.283Z,2.60
2023-09-27T10:15:35.789Z,2.20
2023-09-27T10:18:24.774Z,2.60
2023-09-27T10:21:04.173Z,2.30
2023-09-27T10:23:54.459Z,2.67
2023-09-27T10:26:41.547Z,2.47
2023-09-27T10:29:09.231Z,2.27
2023-09-27T10:31:55.049Z,2.60
2023-09-27T10:34:30.863Z,2.83
2023-09-27T10:37:14.985Z,2.90
2023-09-27T10:39:42.912Z,2.60
2023-09-27T10:42:10.391Z,2.50
2023-09-27T10:44:42.757Z,2.60
2023-09-27T10:47:10.224Z,2.63
2023-09-27T10:49:41.911Z,3.03
2023-09-27T10:52:17.061Z,2.53
2023-09-27T10:54:44.797Z,3.23
2023-09-27T10:57:12.088Z,2.70
2023-09-27T10:59:39.281Z,2.87
2023-09-27T11:02:07.923Z,2.67
2023-09-27T11:04:37.407Z,2.80
2023-09-27T11:07:05.143Z,2.50
2023-09-27T11:09:33.980Z,2.87
2023-09-27T11:12:02.031Z,2.60
2023-09-27T11:14:33.525Z,2.13
2023-09-27T11:17:23.456Z,1.90
2023-09-27T11:19:51.264Z,2.30
2023-09-27T11:22:31.302Z,2.00
2023-09-27T11:24:58.448Z,2.23
2023-09-27T11:27:25.692Z,2.10
2023-09-27T11:29:55.860Z,2.20
2023-09-27T11:32:23.472Z,1.83
2023-09-27T11:34:58.026Z,1.80
2023-09-27T11:37:25.409Z,1.80
2023-09-27T11:39:55.499Z,2.10
2023-09-27T11:42:26.670Z,2.20
2023-09-27T11:45:12.265Z,1.90
2023-09-27T11:47:49.556Z,1.83
2023-09-27T11:50:17.695Z,1.67
2023-09-27T11:52:45.236Z,2.00
2023-09-27T11:55:12.396Z,1.90
2023-09-27T11:57:39.539Z,1.90
2023-09-27T12:00:07.347Z,1.73
2023-09-27T12:05:02.788Z,2.00
2023-09-27T12:07:30.429Z,1.80
2023-09-27T12:09:57.923Z,1.60
2023-09-27T12:12:25.363Z,1.60
2023-09-27T12:14:54.012Z,1.80
2023-09-27T12:17:22.595Z,1.57
2023-09-27T12:19:49.770Z,1.80
2023-09-27T12:22:17.954Z,2.00
2023-09-27T12:24:45.113Z,1.80
2023-09-27T12:27:12.797Z,1.60
2023-09-27T12:29:40.039Z,1.80
2023-09-27T12:32:07.318Z,1.63
2023-09-27T12:34:34.816Z,2.00
2023-09-27T12:37:02.040Z,2.00
2023-09-27T12:39:29.295Z,1.90
2023-09-27T12:42:01.118Z,2.07
2023-09-27T12:44:28.350Z,2.10
2023-09-27T12:46:55.819Z,1.97
2023-09-27T12:49:24.616Z,1.80
2023-09-27T12:51:51.751Z,1.77
2023-09-27T12:54:20.415Z,1.70
2023-09-27T12:56:47.630Z,2.10
2023-09-27T12:59:14.905Z,1.93
2023-09-27T13:01:42.180Z,1.97
2023-09-27T13:04:10.720Z,2.20
2023-09-27T13:06:38.072Z,1.90
2023-09-27T13:09:06.031Z,2.10
2023-09-27T13:11:34.343Z,2.00
2023-09-27T13:14:01.653Z,2.33
2023-09-27T13:16:28.878Z,2.37
2023-09-27T13:18:56.269Z,1.90
2023-09-27T13:21:23.722Z,2.27
2023-09-27T13:23:50.903Z,2.10
2023-09-27T13:26:19.152Z,2.10
2023-09-27T13:28:47.340Z,2.10
2023-09-27T13:31:14.544Z,2.20
2023-09-27T13:33:46.404Z,2.20
2023-09-27T13:36:16.113Z,2.07
2023-09-27T13:38:46.326Z,2.20
2023-09-27T13:41:15.815Z,2.50
2023-09-27T13:43:43.027Z,2.70
2023-09-27T13:46:10.447Z,2.53
2023-09-27T13:48:38.334Z,2.30
2023-09-27T13:51:05.493Z,2.20
2023-09-27T13:53:32.725Z,2.50
2023-09-27T13:55:59.911Z,2.23
2023-09-27T13:58:27.109Z,2.30
2023-09-27T14:00:55.911Z,2.43
2023-09-27T14:03:23.285Z,2.77
2023-09-27T14:05:51.904Z,2.20
2023-09-27T14:08:19.205Z,2.37
2023-09-27T14:10:46.508Z,2.40
2023-09-27T14:13:13.696Z,2.00
2023-09-27T14:15:41.683Z,2.57
2023-09-27T14:18:09.095Z,2.50
2023-09-27T14:20:36.384Z,2.40
2023-09-27T14:23:03.566Z,2.93
2023-09-27T14:25:31.337Z,2.40
2023-09-27T14:27:58.724Z,2.10
2023-09-27T14:30:25.949Z,2.20
2023-09-27T14:32:53.371Z,2.27
2023-09-27T14:35:20.705Z,2.23
2023-09-27T14:37:48.033Z,2.30
2023-09-27T14:40:15.529Z,2.10
2023-09-27T14:42:43.087Z,1.80
2023-09-27T14:45:20.254Z,1.87
2023-09-27T14:47:56.160Z,2.27
2023-09-27T14:50:23.352Z,2.10
2023-09-27T14:52:50.515Z,2.00
2023-09-27T14:55:18.938Z,2.00
2023-09-27T14:57:46.877Z,2.30
2023-09-27T15:00:13.959Z,2.20
2023-09-27T15:02:44.011Z,1.93
2023-09-27T15:05:12.316Z,2.13
2023-09-27T15:07:39.764Z,2.33
2023-09-27T15:10:07.867Z,2.37
2023-09-27T15:12:35.226Z,3.03
2023-09-27T15:15:02.864Z,2.20
2023-09-27T15:17:42.840Z,1.90
2023-09-27T15:20:11.953Z,1.90
2023-09-27T15:22:39.912Z,2.47
2023-09-27T15:25:11.934Z,1.97
2023-09-27T15:27:39.332Z,2.00
2023-09-27T15:30:08.218Z,2.17
2023-09-27T15:32:38.297Z,2.30
2023-09-27T15:35:05.748Z,2.20
2023-09-27T15:37:32.961Z,1.97
2023-09-27T15:40:00.265Z,2.60
2023-09-27T15:42:27.519Z,2.37
2023-09-27T15:44:58.147Z,2.40
2023-09-27T15:47:25.611Z,1.83
2023-09-27T15:49:54.012Z,2.00
2023-09-27T15:52:22.027Z,2.23
2023-09-27T15:54:49.172Z,2.50
2023-09-27T15:57:18.102Z,2.30
2023-09-27T15:59:45.410Z,2.30
2023-09-27T16:02:12.656Z,2.10
2023-09-27T16:04:51.194Z,2.07
2023-09-27T16:07:19.845Z,2.47
2023-09-27T16:09:47.138Z,2.57
2023-09-27T16:12:14.759Z,2.30
2023-09-27T16:14:41.894Z,2.30
2023-09-27T16:17:09.125Z,2.30
2023-09-27T16:19:36.332Z,2.50
2023-09-27T16:22:03.508Z,2.17
2023-09-27T16:24:30.630Z,2.57
2023-09-27T16:27:00.630Z,2.07
2023-09-27T16:29:27.821Z,2.60
2023-09-27T16:31:55.707Z,2.40
2023-09-27T16:34:23.080Z,2.50
2023-09-27T16:36:50.352Z,2.30
2023-09-27T16:39:17.588Z,2.43
2023-09-27T16:41:44.755Z,2.60
2023-09-27T16:44:11.881Z,2.90
2023-09-27T16:46:39.108Z,2.73
2023-09-27T16:49:06.441Z,2.67
2023-09-27T16:51:33.719Z,2.80
2023-09-27T16:54:01.419Z,2.67
2023-09-27T16:56:28.547Z,2.60
2023-09-27T16:58:55.940Z,2.47
2023-09-27T17:01:23.885Z,2.93
2023-09-27T17:03:52.226Z,2.80
2023-09-27T17:06:19.932Z,2.90
2023-09-27T17:08:48.205Z,2.20
2023-09-27T17:11:23.305Z,2.50
2023-09-27T17:13:51.122Z,2.63
2023-09-27T17:16:22.585Z,2.80
2023-09-27T17:18:54.132Z,2.70
2023-09-27T17:21:24.790Z,2.60
2023-09-27T17:23:52.358Z,2.57
2023-09-27T17:26:19.902Z,2.80
2023-09-27T17:28:47.228Z,2.77
2023-09-27T17:31:14.482Z,3.17
2023-09-27T17:33:43.732Z,2.73
2023-09-27T17:36:11.097Z,2.70
2023-09-27T17:38:38.420Z,2.80
2023-09-27T17:41:05.635Z,2.53
2023-09-27T17:43:35.111Z,2.83
2023-09-27T17:46:02.612Z,2.57
2023-09-27T17:48:29.811Z,2.70
2023-09-27T17:50:56.922Z,2.73
2023-09-27T17:53:24.045Z,2.83
2023-09-27T17:55:51.206Z,2.87
2023-09-27T17:58:18.332Z,2.67
2023-09-27T18:00:45.456Z,2.97
2023-09-27T18:03:12.679Z,2.97
2023-09-27T18:05:39.936Z,2.80
2023-09-27T18:08:07.316Z,2.73
2023-09-27T18:10:35.450Z,2.73
2023-09-27T18:13:02.607Z,3.20
2023-09-27T18:15:29.702Z,2.97
2023-09-27T18:17:57.029Z,3.00
2023-09-27T18:20:24.220Z,2.73
2023-09-27T18:22:51.424Z,2.93
2023-09-27T18:25:18.173Z,3.20
2023-09-27T18:27:45.348Z,3.23
2023-09-27T18:30:12.471Z,2.77
2023-09-27T18:32:39.634Z,2.90
2023-09-27T18:35:06.949Z,2.83
2023-09-27T18:37:34.491Z,2.90
2023-09-27T18:40:01.868Z,3.10
2023-09-27T18:42:29.224Z,3.10
2023-09-27T18:44:56.443Z,2.90
2023-09-27T18:47:23.748Z,2.80
2023-09-27T18:49:51.028Z,3.27
2023-09-27T18:52:18.440Z,3.40
2023-09-27T18:54:45.712Z,3.10
2023-09-27T18:57:12.895Z,3.27
2023-09-27T18:59:40.034Z,3.30
2023-09-27T19:02:07.816Z,3.00
2023-09-27T19:04:35.031Z,3.20
2023-09-27T19:07:02.342Z,3.27
2023-09-27T19:09:29.541Z,3.27
2023-09-27T19:11:56.696Z,2.87
2023-09-27T19:14:23.833Z,3.53
2023-09-27T19:16:50.989Z,3.10
2023-09-27T19:19:18.249Z,3.33
2023-09-27T19:21:45.395Z,3.83
2023-09-27T19:24:12.613Z,3.20
2023-09-27T19:26:40.014Z,3.23
2023-09-27T19:29:07.225Z,3.40
2023-09-27T19:31:34.633Z,3.73
2023-09-27T19:34:02.750Z,3.60
2023-09-27T19:36:30.069Z,3.10
2023-09-27T19:38:57.253Z,3.30
2023-09-27T19:41:33.151Z,3.47
2023-09-27T19:44:00.333Z,3.43
2023-09-27T19:46:27.626Z,3.43
2023-09-27T19:48:56.211Z,3.23
2023-09-27T19:51:27.337Z,3.70
2023-09-27T19:53:55.400Z,3.13
2023-09-27T19:56:22.777Z,3.67
2023-09-27T19:58:50.332Z,3.23
2023-09-27T20:01:35.443Z,3.50
2023-09-27T20:04:02.919Z,3.20
2023-09-27T20:06:36.434Z,3.03
2023-09-27T20:09:04.594Z,3.20
2023-09-27T20:11:32.029Z,3.47
2023-09-27T20:13:59.279Z,2.90
2023-09-27T20:16:26.103Z,3.27
2023-09-27T20:18:53.347Z,3.60
2023-09-27T20:21:22.025Z,3.50
2023-09-27T20:23:49.562Z,3.47
2023-09-27T20:26:20.686Z,2.93
2023-09-27T20:28:48.208Z,3.27
2023-09-27T20:31:17.076Z,3.60
2023-09-27T20:33:44.273Z,3.43
2023-09-27T20:36:14.615Z,3.30
2023-09-27T20:38:42.055Z,3.37
2023-09-27T20:41:10.185Z,3.23
2023-09-27T20:43:37.431Z,3.07
2023-09-27T20:46:04.689Z,3.83
2023-09-27T20:48:31.805Z,3.60
2023-09-27T20:50:59.254Z,3.47
2023-09-27T20:53:26.412Z,3.47
2023-09-27T20:55:55.190Z,3.47
2023-09-27T20:58:22.537Z,3.60
2023-09-27T21:00:49.708Z,3.70
2023-09-27T21:03:16.922Z,3.83
2023-09-27T21:05:44.202Z,3.23
2023-09-27T21:08:11.687Z,3.47
2023-09-27T21:10:39.202Z,3.30
2023-09-27T21:13:06.353Z,3.70
2023-09-27T21:15:33.492Z,3.70
2023-09-27T21:18:00.670Z,3.33
2023-09-27T21:20:28.162Z,3.20
2023-09-27T21:22:55.365Z,3.47
2023-09-27T21:25:22.562Z,3.07
2023-09-27T21:27:49.784Z,3.53
2023-09-27T21:30:17.524Z,3.37
2023-09-27T21:32:44.723Z,3.53
2023-09-27T21:35:12.001Z,3.77
2023-09-27T21:37:39.930Z,3.73
2023-09-27T21:40:07.881Z,3.50
2023-09-27T21:42:34.981Z,3.60
2023-09-27T21:45:02.128Z,3.60
2023-09-27T21:47:29.273Z,3.80
2023-09-27T21:49:56.433Z,3.70
2023-09-27T21:52:25.933Z,3.67
2023-09-27T21:54:53.091Z,3.50
2023-09-27T21:57:20.324Z,3.63
2023-09-27T21:59:47.468Z,3.50
2023-09-27T22:02:14.627Z,3.90
2023-09-27T22:04:41.792Z,3.30
2023-09-27T22:07:08.959Z,3.70
2023-09-27T22:09:36.409Z,3.70
2023-09-27T22:12:03.694Z,3.87
2023-09-27T22:14:30.856Z,3.57
2023-09-27T22:16:58.496Z,3.80
2023-09-27T22:19:28.909Z,3.80
2023-09-27T22:21:59.408Z,3.70
2023-09-27T22:24:26.986Z,3.17
2023-09-27T22:26:54.240Z,3.70
2023-09-27T22:29:21.787Z,4.57
2023-09-27T22:31:49.169Z,3.73
2023-09-27T22:34:25.583Z,3.50
2023-09-27T22:36:53.338Z,3.50
2023-09-27T22:39:20.897Z,3.17
2023-09-27T22:41:49.604Z,3.70
2023-09-27T22:44:20.294Z,3.70
2023-09-27T22:46:52.858Z,3.90
2023-09-27T22:49:21.712Z,3.80
2023-09-27T22:51:49.256Z,3.47
2023-09-27T22:54:18.178Z,3.93
2023-09-27T22:56:46.051Z,3.93
2023-09-27T22:59:13.657Z,3.80
2023-09-27T23:01:43.676Z,3.87
2023-09-27T23:04:15.100Z,3.60
2023-09-27T23:06:46.239Z,3.90
2023-09-27T23:09:25.648Z,3.97
2023-09-27T23:12:12.437Z,3.90
2023-09-27T23:14:58.810Z,3.90
2023-09-27T23:17:30.669Z,3.80
2023-09-27T23:19:57.900Z,3.50
2023-09-27T23:22:27.644Z,3.57
2023-09-27T23:25:26.934Z,3.20
2023-09-27T23:27:54.170Z,3.70
2023-09-27T23:30:26.285Z,3.47
2023-09-27T23:32:53.462Z,3.73
2023-09-27T23:35:20.748Z,6.80
2023-09-27T23:37:47.911Z,23.87
2023-09-27T23:40:15.567Z,16.63
2023-09-27T23:42:48.048Z,3.83
2023-09-27T23:45:15.546Z,3.43
2023-09-27T23:47:50.602Z,3.73
2023-09-27T23:50:18.169Z,3.87
2023-09-27T23:52:46.824Z,4.03
2023-09-27T23:55:16.522Z,3.63
2023-09-27T23:57:47.840Z,3.43
